sensor_id;sensor_type;location;lat;lon;timestamp;P1;durP1;ratioP1;P2;durP2;ratioP2
12222;SDS011;6174;49.058;8.524;2023-12-04T06:16:27;9.97;;;9.03;;
12222;SDS011;6174;49.058;8.524;2023-12-04T06:18:54;11.00;;;9.90;;
12222;SDS011;6174;49.058;8.524;2023-12-04T06:21:21;12.23;;;11.00;;
12222;SDS011;6174;49.058;8.524;2023-12-04T06:23:48;14.40;;;13.00;;
12222;SDS011;6174;49.058;8.524;2023-12-04T06:26:16;14.57;;;13.17;;
12222;SDS011;6174;49.058;8.524;2023-12-04T06:28:44;13.57;;;12.27;;
12222;SDS011;6174;49.058;8.524;2023-12-04T06:31:12;12.60;;;11.37;;
12222;SDS011;6174;49.058;8.524;2023-12-04T06:33:42;12.53;;;11.33;;
12222;SDS011;6174;49.058;8.524;2023-12-04T06:36:10;10.27;;;9.27;;
12222;SDS011;6174;49.058;8.524;2023-12-04T06:38:42;8.80;;;8.00;;
12222;SDS011;6174;49.058;8.524;2023-12-04T06:41:13;9.07;;;8.17;;
12222;SDS011;6174;49.058;8.524;2023-12-04T06:43:41;8.67;;;7.87;;
12222;SDS011;6174;49.058;8.524;2023-12-04T06:46:08;8.50;;;7.70;;
12222;SDS011;6174;49.058;8.524;2023-12-04T06:48:37;11.87;;;10.67;;
12222;SDS011;6174;49.058;8.524;2023-12-04T06:51:06;8.57;;;7.77;;
12222;SDS011;6174;49.058;8.524;2023-12-04T06:53:34;8.80;;;7.90;;
12222;SDS011;6174;49.058;8.524;2023-12-04T06:56:01;9.00;;;7.50;;
12222;SDS011;6174;49.058;8.524;2023-12-04T06:58:27;9.63;;;8.73;;
12222;SDS011;6174;49.058;8.524;2023-12-04T07:00:54;9.73;;;8.83;;
12222;SDS011;6174;49.058;8.524;2023-12-04T07:03:21;8.83;;;7.93;;
12222;SDS011;6174;49.058;8.524;2023-12-04T07:05:48;7.50;;;6.70;;
12222;SDS011;6174;49.058;8.524;2023-12-04T07:08:16;7.40;;;6.80;;
12222;SDS011;6174;49.058;8.524;2023-12-04T07:10:42;7.67;;;6.93;;
12222;SDS011;6174;49.058;8.524;2023-12-04T07:13:10;7.33;;;6.67;;
12222;SDS011;6174;49.058;8.524;2023-12-04T07:15:37;8.20;;;7.50;;
12222;SDS011;6174;49.058;8.524;2023-12-04T07:18:04;7.00;;;6.40;;
12222;SDS011;6174;49.058;8.524;2023-12-04T07:20:31;8.13;;;7.33;;
12222;SDS011;6174;49.058;8.524;2023-12-04T07:22:58;7.70;;;7.00;;
12222;SDS011;6174;49.058;8.524;2023-12-04T07:25:26;7.43;;;6.73;;
12222;SDS011;6174;49.058;8.524;2023-12-04T07:27:53;8.83;;;8.03;;
12222;SDS011;6174;49.058;8.524;2023-12-04T07:30:19;8.20;;;7.50;;
12222;SDS011;6174;49.058;8.524;2023-12-04T07:32:46;7.80;;;7.10;;
12222;SDS011;6174;49.058;8.524;2023-12-04T07:35:13;7.50;;;6.90;;
12222;SDS011;6174;49.058;8.524;2023-12-04T07:37:40;7.63;;;7.00;;
12222;SDS011;6174;49.058;8.524;2023-12-04T07:40:07;7.97;;;7.27;;
12222;SDS011;6174;49.058;8.524;2023-12-04T07:42:37;7.60;;;7.00;;
12222;SDS011;6174;49.058;8.524;2023-12-04T07:45:04;8.27;;;7.07;;
12222;SDS011;6174;49.058;8.524;2023-12-04T07:47:31;7.47;;;6.77;;
12222;SDS011;6174;49.058;8.524;2023-12-04T07:49:58;8.13;;;7.43;;
12222;SDS011;6174;49.058;8.524;2023-12-04T07:52:26;8.00;;;7.27;;
12222;SDS011;6174;49.058;8.524;2023-12-04T07:54:52;8.60;;;7.70;;
12222;SDS011;6174;49.058;8.524;2023-12-04T07:57:19;7.13;;;6.53;;
12222;SDS011;6174;49.058;8.524;2023-12-04T07:59:47;7.57;;;6.87;;
12222;SDS011;6174;49.058;8.524;2023-12-04T08:02:14;7.23;;;6.63;;
12222;SDS011;6174;49.058;8.524;2023-12-04T08:04:41;6.97;;;6.27;;
12222;SDS011;6174;49.058;8.524;2023-12-04T08:07:07;8.13;;;7.33;;
12222;SDS011;6174;49.058;8.524;2023-12-04T08:09:34;7.73;;;7.03;;
12222;SDS011;6174;49.058;8.524;2023-12-04T08:12:01;6.70;;;6.10;;
12222;SDS011;6174;49.058;8.524;2023-12-04T08:14:28;6.87;;;6.27;;
12222;SDS011;6174;49.058;8.524;2023-12-04T08:16:56;6.13;;;5.60;;
12222;SDS011;6174;49.058;8.524;2023-12-04T08:19:22;6.40;;;5.80;;
12222;SDS011;6174;49.058;8.524;2023-12-04T08:21:49;6.87;;;6.20;;
12222;SDS011;6174;49.058;8.524;2023-12-04T08:24:16;6.30;;;5.70;;
12222;SDS011;6174;49.058;8.524;2023-12-04T08:26:43;6.80;;;6.20;;
12222;SDS011;6174;49.058;8.524;2023-12-04T08:29:10;6.10;;;5.60;;
12222;SDS011;6174;49.058;8.524;2023-12-04T08:31:37;6.67;;;6.07;;
12222;SDS011;6174;49.058;8.524;2023-12-04T08:34:05;6.40;;;5.80;;
12222;SDS011;6174;49.058;8.524;2023-12-04T08:36:32;7.13;;;6.43;;
12222;SDS011;6174;49.058;8.524;2023-12-04T08:38:59;7.43;;;6.73;;
12222;SDS011;6174;49.058;8.524;2023-12-04T08:41:25;8.50;;;7.60;;
12222;SDS011;6174;49.058;8.524;2023-12-04T08:43:53;7.57;;;6.87;;
12222;SDS011;6174;49.058;8.524;2023-12-04T08:46:20;6.33;;;5.73;;
12222;SDS011;6174;49.058;8.524;2023-12-04T08:48:47;6.63;;;6.03;;
12222;SDS011;6174;49.058;8.524;2023-12-04T08:51:18;7.10;;;6.40;;
12222;SDS011;6174;49.058;8.524;2023-12-04T08:53:45;6.90;;;6.20;;
12222;SDS011;6174;49.058;8.524;2023-12-04T08:56:11;8.20;;;7.40;;
12222;SDS011;6174;49.058;8.524;2023-12-04T08:58:38;7.53;;;6.80;;
12222;SDS011;6174;49.058;8.524;2023-12-04T09:01:05;7.93;;;7.17;;
12222;SDS011;6174;49.058;8.524;2023-12-04T09:03:32;7.37;;;6.67;;
12222;SDS011;6174;49.058;8.524;2023-12-04T09:05:59;7.17;;;6.47;;
12222;SDS011;6174;49.058;8.524;2023-12-04T09:08:27;7.77;;;7.07;;
12222;SDS011;6174;49.058;8.524;2023-12-04T09:10:57;7.30;;;6.60;;
12222;SDS011;6174;49.058;8.524;2023-12-04T09:13:24;8.17;;;7.37;;
12222;SDS011;6174;49.058;8.524;2023-12-04T09:15:54;8.50;;;7.70;;
12222;SDS011;6174;49.058;8.524;2023-12-04T09:18:21;8.30;;;7.50;;
12222;SDS011;6174;49.058;8.524;2023-12-04T09:20:48;8.20;;;7.40;;
12222;SDS011;6174;49.058;8.524;2023-12-04T09:23:14;7.33;;;6.70;;
12222;SDS011;6174;49.058;8.524;2023-12-04T09:25:42;7.97;;;7.27;;
12222;SDS011;6174;49.058;8.524;2023-12-04T09:28:12;7.63;;;6.93;;
12222;SDS011;6174;49.058;8.524;2023-12-04T09:30:39;7.23;;;6.57;;
12222;SDS011;6174;49.058;8.524;2023-12-04T09:33:06;9.20;;;7.63;;
12222;SDS011;6174;49.058;8.524;2023-12-04T09:35:32;7.70;;;6.87;;
12222;SDS011;6174;49.058;8.524;2023-12-04T09:38:02;7.10;;;6.40;;
12222;SDS011;6174;49.058;8.524;2023-12-04T09:40:28;8.20;;;6.77;;
12222;SDS011;6174;49.058;8.524;2023-12-04T09:42:56;7.77;;;6.87;;
12222;SDS011;6174;49.058;8.524;2023-12-04T09:45:23;7.60;;;6.90;;
12222;SDS011;6174;49.058;8.524;2023-12-04T09:47:51;8.10;;;6.63;;
12222;SDS011;6174;49.058;8.524;2023-12-04T09:50:18;7.50;;;6.80;;
12222;SDS011;6174;49.058;8.524;2023-12-04T09:52:47;7.77;;;6.97;;
12222;SDS011;6174;49.058;8.524;2023-12-04T09:55:14;8.57;;;7.60;;
12222;SDS011;6174;49.058;8.524;2023-12-04T09:57:41;8.83;;;7.93;;
12222;SDS011;6174;49.058;8.524;2023-12-04T10:00:10;8.27;;;7.43;;
12222;SDS011;6174;49.058;8.524;2023-12-04T10:02:39;8.30;;;7.40;;
12222;SDS011;6174;49.058;8.524;2023-12-04T10:05:07;8.70;;;7.63;;
12222;SDS011;6174;49.058;8.524;2023-12-04T10:07:34;8.63;;;7.70;;
12222;SDS011;6174;49.058;8.524;2023-12-04T10:10:02;8.03;;;7.33;;
12222;SDS011;6174;49.058;8.524;2023-12-04T10:12:30;8.30;;;7.50;;
12222;SDS011;6174;49.058;8.524;2023-12-04T10:15:02;9.07;;;8.17;;
12222;SDS011;6174;49.058;8.524;2023-12-04T10:17:36;9.23;;;8.00;;
12222;SDS011;6174;49.058;8.524;2023-12-04T10:20:05;9.17;;;8.13;;
12222;SDS011;6174;49.058;8.524;2023-12-04T10:22:38;7.97;;;6.33;;
12222;SDS011;6174;49.058;8.524;2023-12-04T10:25:14;7.17;;;6.47;;
12222;SDS011;6174;49.058;8.524;2023-12-04T10:27:41;9.63;;;8.73;;
12222;SDS011;6174;49.058;8.524;2023-12-04T10:30:09;9.87;;;7.60;;
12222;SDS011;6174;49.058;8.524;2023-12-04T10:32:40;7.90;;;7.20;;
12222;SDS011;6174;49.058;8.524;2023-12-04T10:35:07;8.17;;;7.37;;
12222;SDS011;6174;49.058;8.524;2023-12-04T10:37:35;9.60;;;7.83;;
12222;SDS011;6174;49.058;8.524;2023-12-04T10:40:03;9.00;;;7.93;;
12222;SDS011;6174;49.058;8.524;2023-12-04T10:42:33;8.10;;;7.30;;
12222;SDS011;6174;49.058;8.524;2023-12-04T10:45:00;8.13;;;7.37;;
12222;SDS011;6174;49.058;8.524;2023-12-04T10:47:28;7.33;;;6.73;;
12222;SDS011;6174;49.058;8.524;2023-12-04T10:49:58;7.40;;;6.70;;
12222;SDS011;6174;49.058;8.524;2023-12-04T10:52:25;7.13;;;6.37;;
12222;SDS011;6174;49.058;8.524;2023-12-04T10:54:53;7.13;;;6.43;;
12222;SDS011;6174;49.058;8.524;2023-12-04T10:57:21;7.73;;;7.07;;
12222;SDS011;6174;49.058;8.524;2023-12-04T10:59:51;7.87;;;7.17;;
12222;SDS011;6174;49.058;8.524;2023-12-04T11:02:24;8.00;;;7.13;;
12222;SDS011;6174;49.058;8.524;2023-12-04T11:04:54;8.63;;;7.73;;
12222;SDS011;6174;49.058;8.524;2023-12-04T11:07:25;7.60;;;7.00;;
12222;SDS011;6174;49.058;8.524;2023-12-04T11:09:53;8.00;;;7.23;;
12222;SDS011;6174;49.058;8.524;2023-12-04T11:12:22;8.60;;;7.73;;
12222;SDS011;6174;49.058;8.524;2023-12-04T11:14:53;7.93;;;7.17;;
12222;SDS011;6174;49.058;8.524;2023-12-04T11:17:23;8.13;;;7.30;;
12222;SDS011;6174;49.058;8.524;2023-12-04T11:19:54;8.47;;;7.57;;
12222;SDS011;6174;49.058;8.524;2023-12-04T11:22:28;8.30;;;7.50;;
12222;SDS011;6174;49.058;8.524;2023-12-04T11:24:55;8.10;;;7.40;;
12222;SDS011;6174;49.058;8.524;2023-12-04T11:27:22;8.40;;;7.60;;
12222;SDS011;6174;49.058;8.524;2023-12-04T11:29:50;8.57;;;7.77;;
12222;SDS011;6174;49.058;8.524;2023-12-04T11:32:17;8.33;;;7.53;;
12222;SDS011;6174;49.058;8.524;2023-12-04T11:34:48;8.47;;;7.57;;
12222;SDS011;6174;49.058;8.524;2023-12-04T11:37:17;7.67;;;6.97;;
12222;SDS011;6174;49.058;8.524;2023-12-04T11:39:47;8.07;;;7.37;;
12222;SDS011;6174;49.058;8.524;2023-12-04T11:42:18;8.37;;;7.57;;
12222;SDS011;6174;49.058;8.524;2023-12-04T11:44:47;7.50;;;6.80;;
12222;SDS011;6174;49.058;8.524;2023-12-04T11:47:14;8.90;;;7.60;;
12222;SDS011;6174;49.058;8.524;2023-12-04T11:49:41;8.07;;;7.27;;
12222;SDS011;6174;49.058;8.524;2023-12-04T11:52:09;7.80;;;7.10;;
12222;SDS011;6174;49.058;8.524;2023-12-04T11:57:28;7.63;;;6.93;;
12222;SDS011;6174;49.058;8.524;2023-12-04T12:00:21;14.53;;;12.70;;
12222;SDS011;6174;49.058;8.524;2023-12-04T12:05:33;10.30;;;9.23;;
12222;SDS011;6174;49.058;8.524;2023-12-04T12:08:01;10.43;;;9.43;;
12222;SDS011;6174;49.058;8.524;2023-12-04T12:10:30;9.77;;;8.27;;
12222;SDS011;6174;49.058;8.524;2023-12-04T12:12:58;8.53;;;7.73;;
12222;SDS011;6174;49.058;8.524;2023-12-04T12:15:25;9.77;;;8.87;;
12222;SDS011;6174;49.058;8.524;2023-12-04T12:17:51;8.90;;;8.03;;
12222;SDS011;6174;49.058;8.524;2023-12-04T12:20:19;9.27;;;8.43;;
12222;SDS011;6174;49.058;8.524;2023-12-04T12:22:47;7.83;;;6.97;;
12222;SDS011;6174;49.058;8.524;2023-12-04T12:25:15;7.70;;;7.00;;
12222;SDS011;6174;49.058;8.524;2023-12-04T12:27:44;8.47;;;7.67;;
12222;SDS011;6174;49.058;8.524;2023-12-04T12:30:11;8.10;;;7.30;;
12222;SDS011;6174;49.058;8.524;2023-12-04T12:32:41;26.93;;;19.03;;
12222;SDS011;6174;49.058;8.524;2023-12-04T12:35:08;18.97;;;14.33;;
12222;SDS011;6174;49.058;8.524;2023-12-04T12:37:35;8.73;;;7.90;;
12222;SDS011;6174;49.058;8.524;2023-12-04T12:40:03;8.13;;;7.33;;
12222;SDS011;6174;49.058;8.524;2023-12-04T12:42:34;7.77;;;7.07;;
12222;SDS011;6174;49.058;8.524;2023-12-04T12:45:03;8.43;;;7.70;;
12222;SDS011;6174;49.058;8.524;2023-12-04T12:47:30;9.40;;;8.40;;
12222;SDS011;6174;49.058;8.524;2023-12-04T12:49:57;8.57;;;7.77;;
12222;SDS011;6174;49.058;8.524;2023-12-04T12:52:26;8.23;;;7.53;;
12222;SDS011;6174;49.058;8.524;2023-12-04T12:54:53;8.30;;;7.50;;
12222;SDS011;6174;49.058;8.524;2023-12-04T12:57:20;8.67;;;7.87;;
12222;SDS011;6174;49.058;8.524;2023-12-04T12:59:46;7.43;;;6.80;;
12222;SDS011;6174;49.058;8.524;2023-12-04T13:02:14;7.67;;;6.97;;
12222;SDS011;6174;49.058;8.524;2023-12-04T13:04:41;10.10;;;9.10;;
12222;SDS011;6174;49.058;8.524;2023-12-04T13:07:09;9.30;;;8.40;;
12222;SDS011;6174;49.058;8.524;2023-12-04T13:09:38;8.83;;;8.03;;
12222;SDS011;6174;49.058;8.524;2023-12-04T13:12:06;9.00;;;8.10;;
12222;SDS011;6174;49.058;8.524;2023-12-04T13:14:34;9.43;;;8.53;;
12222;SDS011;6174;49.058;8.524;2023-12-04T13:17:01;11.00;;;9.90;;
12222;SDS011;6174;49.058;8.524;2023-12-04T13:19:30;10.53;;;9.53;;
12222;SDS011;6174;49.058;8.524;2023-12-04T13:21:59;8.47;;;7.67;;
12222;SDS011;6174;49.058;8.524;2023-12-04T13:24:26;9.87;;;8.97;;
12222;SDS011;6174;49.058;8.524;2023-12-04T13:26:53;8.50;;;7.70;;
12222;SDS011;6174;49.058;8.524;2023-12-04T13:29:20;8.33;;;7.63;;
12222;SDS011;6174;49.058;8.524;2023-12-04T13:31:47;9.33;;;8.43;;
12222;SDS011;6174;49.058;8.524;2023-12-04T13:34:15;8.67;;;7.77;;
12222;SDS011;6174;49.058;8.524;2023-12-04T13:36:43;9.27;;;8.47;;
12222;SDS011;6174;49.058;8.524;2023-12-04T13:39:10;8.83;;;7.97;;
12222;SDS011;6174;49.058;8.524;2023-12-04T13:41:42;9.50;;;8.00;;
12222;SDS011;6174;49.058;8.524;2023-12-04T13:44:27;8.57;;;7.77;;
12222;SDS011;6174;49.058;8.524;2023-12-04T13:46:54;8.63;;;7.73;;
12222;SDS011;6174;49.058;8.524;2023-12-04T13:49:21;9.60;;;8.70;;
12222;SDS011;6174;49.058;8.524;2023-12-04T13:51:49;12.23;;;11.03;;
12222;SDS011;6174;49.058;8.524;2023-12-04T13:54:17;10.77;;;9.70;;
12222;SDS011;6174;49.058;8.524;2023-12-04T13:56:46;8.70;;;7.90;;
12222;SDS011;6174;49.058;8.524;2023-12-04T13:59:18;8.33;;;7.47;;
12222;SDS011;6174;49.058;8.524;2023-12-04T14:01:46;10.00;;;9.00;;
12222;SDS011;6174;49.058;8.524;2023-12-04T14:04:17;11.30;;;10.30;;
12222;SDS011;6174;49.058;8.524;2023-12-04T14:06:44;10.70;;;9.63;;
12222;SDS011;6174;49.058;8.524;2023-12-04T14:09:13;12.87;;;11.57;;
12222;SDS011;6174;49.058;8.524;2023-12-04T14:11:41;9.00;;;8.20;;
12222;SDS011;6174;49.058;8.524;2023-12-04T14:14:09;10.20;;;9.23;;
12222;SDS011;6174;49.058;8.524;2023-12-04T14:16:37;8.80;;;7.93;;
12222;SDS011;6174;49.058;8.524;2023-12-04T14:19:04;8.93;;;8.10;;
12222;SDS011;6174;49.058;8.524;2023-12-04T14:21:31;8.47;;;7.33;;
12222;SDS011;6174;49.058;8.524;2023-12-04T14:23:58;7.93;;;7.17;;
12222;SDS011;6174;49.058;8.524;2023-12-04T14:26:26;7.40;;;6.70;;
12222;SDS011;6174;49.058;8.524;2023-12-04T14:28:53;7.77;;;7.07;;
12222;SDS011;6174;49.058;8.524;2023-12-04T14:31:21;7.70;;;6.40;;
12222;SDS011;6174;49.058;8.524;2023-12-04T14:33:48;7.83;;;7.13;;
12222;SDS011;6174;49.058;8.524;2023-12-04T14:36:15;9.03;;;8.13;;
12222;SDS011;6174;49.058;8.524;2023-12-04T14:38:41;9.17;;;8.33;;
12222;SDS011;6174;49.058;8.524;2023-12-04T14:41:08;8.40;;;6.93;;
12222;SDS011;6174;49.058;8.524;2023-12-04T14:43:36;7.70;;;7.00;;
12222;SDS011;6174;49.058;8.524;2023-12-04T14:46:04;7.13;;;6.43;;
12222;SDS011;6174;49.058;8.524;2023-12-04T14:48:33;9.13;;;8.23;;
12222;SDS011;6174;49.058;8.524;2023-12-04T14:51:00;7.43;;;6.73;;
12222;SDS011;6174;49.058;8.524;2023-12-04T14:53:28;6.10;;;5.53;;
12222;SDS011;6174;49.058;8.524;2023-12-04T14:56:06;5.50;;;5.00;;
12222;SDS011;6174;49.058;8.524;2023-12-04T14:58:58;6.77;;;6.17;;
12222;SDS011;6174;49.058;8.524;2023-12-04T15:01:57;5.50;;;5.00;;
12222;SDS011;6174;49.058;8.524;2023-12-04T15:05:04;5.33;;;4.83;;
12222;SDS011;6174;49.058;8.524;2023-12-04T15:08:05;6.33;;;5.73;;
12222;SDS011;6174;49.058;8.524;2023-12-04T15:11:01;5.30;;;4.80;;
12222;SDS011;6174;49.058;8.524;2023-12-04T15:13:50;4.73;;;4.33;;
12222;SDS011;6174;49.058;8.524;2023-12-04T15:16:22;4.80;;;4.40;;
12222;SDS011;6174;49.058;8.524;2023-12-04T15:18:58;4.97;;;4.27;;
12222;SDS011;6174;49.058;8.524;2023-12-04T15:21:47;4.53;;;4.13;;
12222;SDS011;6174;49.058;8.524;2023-12-04T15:24:14;4.57;;;4.17;;
12222;SDS011;6174;49.058;8.524;2023-12-04T15:26:40;4.43;;;4.03;;
12222;SDS011;6174;49.058;8.524;2023-12-04T15:29:06;4.77;;;4.37;;
12222;SDS011;6174;49.058;8.524;2023-12-04T15:31:34;4.10;;;3.70;;
12222;SDS011;6174;49.058;8.524;2023-12-04T15:34:04;4.53;;;3.90;;
12222;SDS011;6174;49.058;8.524;2023-12-04T15:36:30;5.27;;;4.70;;
12222;SDS011;6174;49.058;8.524;2023-12-04T15:38:57;5.20;;;4.70;;
12222;SDS011;6174;49.058;8.524;2023-12-04T15:41:22;5.23;;;4.47;;
12222;SDS011;6174;49.058;8.524;2023-12-04T15:43:49;4.07;;;3.67;;
12222;SDS011;6174;49.058;8.524;2023-12-04T15:46:15;4.00;;;3.70;;
12222;SDS011;6174;49.058;8.524;2023-12-04T15:48:44;5.47;;;4.97;;
12222;SDS011;6174;49.058;8.524;2023-12-04T15:51:10;3.70;;;3.40;;
12222;SDS011;6174;49.058;8.524;2023-12-04T15:53:37;4.87;;;3.43;;
12222;SDS011;6174;49.058;8.524;2023-12-04T15:56:04;3.40;;;3.10;;
12222;SDS011;6174;49.058;8.524;2023-12-04T15:58:31;3.70;;;3.17;;
12222;SDS011;6174;49.058;8.524;2023-12-04T16:00:58;3.90;;;3.50;;
12222;SDS011;6174;49.058;8.524;2023-12-04T16:06:41;3.57;;;3.27;;
12222;SDS011;6174;49.058;8.524;2023-12-04T16:09:10;3.70;;;3.40;;
12222;SDS011;6174;49.058;8.524;2023-12-04T16:11:38;3.43;;;3.13;;
12222;SDS011;6174;49.058;8.524;2023-12-04T16:14:05;3.43;;;3.13;;
12222;SDS011;6174;49.058;8.524;2023-12-04T16:16:32;4.23;;;3.73;;
12222;SDS011;6174;49.058;8.524;2023-12-04T16:19:00;4.27;;;3.40;;
12222;SDS011;6174;49.058;8.524;2023-12-04T16:21:27;4.40;;;4.00;;
12222;SDS011;6174;49.058;8.524;2023-12-04T16:23:59;4.30;;;3.90;;
12222;SDS011;6174;49.058;8.524;2023-12-04T16:26:28;4.47;;;4.07;;
12222;SDS011;6174;49.058;8.524;2023-12-04T16:28:58;4.20;;;3.80;;
12222;SDS011;6174;49.058;8.524;2023-12-04T16:31:28;4.50;;;4.10;;
12222;SDS011;6174;49.058;8.524;2023-12-04T16:33:55;5.17;;;4.70;;
12222;SDS011;6174;49.058;8.524;2023-12-04T16:36:27;5.47;;;5.03;;
12222;SDS011;6174;49.058;8.524;2023-12-04T16:38:56;7.13;;;6.43;;
12222;SDS011;6174;49.058;8.524;2023-12-04T16:41:24;8.33;;;7.43;;
12222;SDS011;6174;49.058;8.524;2023-12-04T16:43:51;10.13;;;8.60;;
12222;SDS011;6174;49.058;8.524;2023-12-04T16:46:19;10.57;;;9.50;;
12222;SDS011;6174;49.058;8.524;2023-12-04T16:49:38;9.50;;;8.50;;
12222;SDS011;6174;49.058;8.524;2023-12-04T16:52:09;10.97;;;9.87;;
12222;SDS011;6174;49.058;8.524;2023-12-04T16:55:02;11.97;;;9.80;;
12222;SDS011;6174;49.058;8.524;2023-12-04T17:02:35;11.03;;;9.90;;
12222;SDS011;6174;49.058;8.524;2023-12-04T17:05:06;11.60;;;10.40;;
12222;SDS011;6174;49.058;8.524;2023-12-04T17:07:53;11.50;;;10.40;;
12222;SDS011;6174;49.058;8.524;2023-12-04T17:10:20;12.13;;;10.97;;
12222;SDS011;6174;49.058;8.524;2023-12-04T17:16:10;12.33;;;11.00;;
12222;SDS011;6174;49.058;8.524;2023-12-04T17:18:56;11.73;;;10.53;;
12222;SDS011;6174;49.058;8.524;2023-12-04T17:21:26;27.97;;;23.50;;
12222;SDS011;6174;49.058;8.524;2023-12-04T17:24:00;16.13;;;14.43;;
12222;SDS011;6174;49.058;8.524;2023-12-04T17:26:30;12.87;;;11.53;;
12222;SDS011;6174;49.058;8.524;2023-12-04T17:29:02;13.43;;;12.00;;
12222;SDS011;6174;49.058;8.524;2023-12-04T17:31:58;14.10;;;12.70;;
12222;SDS011;6174;49.058;8.524;2023-12-04T17:34:29;13.93;;;12.40;;
12222;SDS011;6174;49.058;8.524;2023-12-04T17:37:09;14.10;;;12.60;;
12222;SDS011;6174;49.058;8.524;2023-12-04T17:39:43;13.73;;;12.33;;
12222;SDS011;6174;49.058;8.524;2023-12-04T17:42:18;17.93;;;15.87;;
12222;SDS011;6174;49.058;8.524;2023-12-04T17:45:09;18.93;;;15.63;;
12222;SDS011;6174;49.058;8.524;2023-12-04T17:47:42;14.40;;;13.00;;
12222;SDS011;6174;49.058;8.524;2023-12-04T17:50:18;14.13;;;12.63;;
12222;SDS011;6174;49.058;8.524;2023-12-04T17:52:53;14.70;;;13.37;;
12222;SDS011;6174;49.058;8.524;2023-12-04T17:55:25;14.23;;;12.83;;
12222;SDS011;6174;49.058;8.524;2023-12-04T17:57:56;14.90;;;13.37;;
12222;SDS011;6174;49.058;8.524;2023-12-04T18:00:26;14.90;;;13.40;;
12222;SDS011;6174;49.058;8.524;2023-12-04T18:02:56;14.53;;;13.03;;
12222;SDS011;6174;49.058;8.524;2023-12-04T18:05:28;15.83;;;14.23;;
12222;SDS011;6174;49.058;8.524;2023-12-04T18:08:06;19.20;;;17.20;;
12222;SDS011;6174;49.058;8.524;2023-12-04T18:10:37;20.90;;;18.77;;
12222;SDS011;6174;49.058;8.524;2023-12-04T18:13:11;18.60;;;16.67;;
12222;SDS011;6174;49.058;8.524;2023-12-04T18:15:41;15.40;;;13.90;;
12222;SDS011;6174;49.058;8.524;2023-12-04T18:18:09;15.80;;;14.20;;
12222;SDS011;6174;49.058;8.524;2023-12-04T18:20:39;15.97;;;14.27;;
12222;SDS011;6174;49.058;8.524;2023-12-04T18:23:10;15.10;;;13.53;;
12222;SDS011;6174;49.058;8.524;2023-12-04T18:25:42;13.27;;;11.90;;
12222;SDS011;6174;49.058;8.524;2023-12-04T18:28:19;13.57;;;12.03;;
12222;SDS011;6174;49.058;8.524;2023-12-04T18:31:14;13.17;;;11.93;;
12222;SDS011;6174;49.058;8.524;2023-12-04T18:35:05;13.73;;;12.43;;
12222;SDS011;6174;49.058;8.524;2023-12-04T18:37:51;16.27;;;14.77;;
12222;SDS011;6174;49.058;8.524;2023-12-04T18:40:35;15.43;;;13.93;;
12222;SDS011;6174;49.058;8.524;2023-12-04T18:43:05;17.37;;;15.57;;
12222;SDS011;6174;49.058;8.524;2023-12-04T18:45:45;16.17;;;14.47;;
12222;SDS011;6174;49.058;8.524;2023-12-04T18:48:26;14.40;;;12.90;;
12222;SDS011;6174;49.058;8.524;2023-12-04T18:51:11;14.70;;;13.20;;
12222;SDS011;6174;49.058;8.524;2023-12-04T18:53:46;15.47;;;13.30;;
12222;SDS011;6174;49.058;8.524;2023-12-04T18:56:20;14.50;;;13.00;;
12222;SDS011;6174;49.058;8.524;2023-12-04T18:58:52;16.97;;;15.27;;
12222;SDS011;6174;49.058;8.524;2023-12-04T19:04:25;16.43;;;14.70;;
12222;SDS011;6174;49.058;8.524;2023-12-04T19:07:43;14.93;;;13.43;;
12222;SDS011;6174;49.058;8.524;2023-12-04T19:16:13;14.63;;;13.10;;
12222;SDS011;6174;49.058;8.524;2023-12-04T19:18:40;13.53;;;12.23;;
12222;SDS011;6174;49.058;8.524;2023-12-04T19:21:07;14.53;;;13.13;;
12222;SDS011;6174;49.058;8.524;2023-12-04T19:23:34;14.77;;;13.27;;
12222;SDS011;6174;49.058;8.524;2023-12-04T19:28:31;15.47;;;13.80;;
12222;SDS011;6174;49.058;8.524;2023-12-04T19:30:58;15.60;;;14.00;;
12222;SDS011;6174;49.058;8.524;2023-12-04T19:33:27;14.47;;;12.97;;
12222;SDS011;6174;49.058;8.524;2023-12-04T19:35:55;14.77;;;13.37;;
12222;SDS011;6174;49.058;8.524;2023-12-04T19:38:21;15.33;;;13.73;;
12222;SDS011;6174;49.058;8.524;2023-12-04T19:40:48;16.33;;;14.60;;
12222;SDS011;6174;49.058;8.524;2023-12-04T19:43:15;15.90;;;14.40;;
12222;SDS011;6174;49.058;8.524;2023-12-04T19:45:42;16.97;;;14.90;;
12222;SDS011;6174;49.058;8.524;2023-12-04T19:48:09;16.33;;;14.67;;
12222;SDS011;6174;49.058;8.524;2023-12-04T19:50:37;18.40;;;16.33;;
12222;SDS011;6174;49.058;8.524;2023-12-04T19:53:05;18.23;;;16.33;;
12222;SDS011;6174;49.058;8.524;2023-12-04T19:55:32;17.33;;;15.60;;
12222;SDS011;6174;49.058;8.524;2023-12-04T19:57:58;17.33;;;15.63;;
12222;SDS011;6174;49.058;8.524;2023-12-04T20:00:26;17.10;;;15.00;;
12222;SDS011;6174;49.058;8.524;2023-12-04T20:02:54;17.30;;;15.47;;
12222;SDS011;6174;49.058;8.524;2023-12-04T20:05:22;16.37;;;14.67;;
12222;SDS011;6174;49.058;8.524;2023-12-04T20:07:50;16.27;;;14.37;;
12222;SDS011;6174;49.058;8.524;2023-12-04T20:10:16;16.77;;;14.97;;
12222;SDS011;6174;49.058;8.524;2023-12-04T20:12:43;16.03;;;14.43;;
12222;SDS011;6174;49.058;8.524;2023-12-04T20:15:10;17.00;;;15.30;;
12222;SDS011;6174;49.058;8.524;2023-12-04T20:17:40;18.03;;;16.20;;
12222;SDS011;6174;49.058;8.524;2023-12-04T20:20:07;17.27;;;15.47;;
12222;SDS011;6174;49.058;8.524;2023-12-04T20:22:35;18.73;;;16.03;;
12222;SDS011;6174;49.058;8.524;2023-12-04T20:25:03;16.90;;;15.30;;
12222;SDS011;6174;49.058;8.524;2023-12-04T20:27:31;17.23;;;15.53;;
12222;SDS011;6174;49.058;8.524;2023-12-04T20:29:58;18.30;;;16.50;;
12222;SDS011;6174;49.058;8.524;2023-12-04T20:32:24;18.23;;;16.43;;
12222;SDS011;6174;49.058;8.524;2023-12-04T20:34:51;17.23;;;15.43;;
12222;SDS011;6174;49.058;8.524;2023-12-04T20:37:18;16.33;;;14.63;;
12222;SDS011;6174;49.058;8.524;2023-12-04T20:39:45;15.67;;;14.07;;
12222;SDS011;6174;49.058;8.524;2023-12-04T20:42:13;15.57;;;13.97;;
12222;SDS011;6174;49.058;8.524;2023-12-04T20:44:42;15.00;;;13.40;;
12222;SDS011;6174;49.058;8.524;2023-12-04T20:47:09;18.03;;;15.97;;
12222;SDS011;6174;49.058;8.524;2023-12-04T20:49:36;18.47;;;16.43;;
12222;SDS011;6174;49.058;8.524;2023-12-04T20:52:03;18.57;;;16.23;;
12222;SDS011;6174;49.058;8.524;2023-12-04T20:54:31;23.10;;;18.73;;
12222;SDS011;6174;49.058;8.524;2023-12-04T20:56:58;18.17;;;16.27;;
12222;SDS011;6174;49.058;8.524;2023-12-04T20:59:26;20.70;;;18.50;;
12222;SDS011;6174;49.058;8.524;2023-12-04T21:01:53;17.47;;;15.63;;
12222;SDS011;6174;49.058;8.524;2023-12-04T21:04:19;15.60;;;14.00;;
12222;SDS011;6174;49.058;8.524;2023-12-04T21:06:46;14.17;;;12.10;;
12222;SDS011;6174;49.058;8.524;2023-12-04T21:09:13;15.93;;;11.97;;
12222;SDS011;6174;49.058;8.524;2023-12-04T21:11:40;14.30;;;12.87;;
12222;SDS011;6174;49.058;8.524;2023-12-04T21:14:07;12.37;;;11.20;;
12222;SDS011;6174;49.058;8.524;2023-12-04T21:16:36;13.57;;;11.90;;
12222;SDS011;6174;49.058;8.524;2023-12-04T21:19:03;12.77;;;11.37;;
12222;SDS011;6174;49.058;8.524;2023-12-04T21:21:30;19.40;;;16.10;;
12222;SDS011;6174;49.058;8.524;2023-12-04T21:23:57;14.67;;;13.00;;
12222;SDS011;6174;49.058;8.524;2023-12-04T21:26:23;14.30;;;12.80;;
12222;SDS011;6174;49.058;8.524;2023-12-04T21:28:53;16.30;;;14.03;;
12222;SDS011;6174;49.058;8.524;2023-12-04T21:31:22;17.93;;;14.03;;
12222;SDS011;6174;49.058;8.524;2023-12-04T21:33:51;16.10;;;14.30;;
12222;SDS011;6174;49.058;8.524;2023-12-04T21:36:18;17.40;;;14.37;;
12222;SDS011;6174;49.058;8.524;2023-12-04T21:38:45;20.40;;;15.73;;
12222;SDS011;6174;49.058;8.524;2023-12-04T21:41:12;22.27;;;18.37;;
12222;SDS011;6174;49.058;8.524;2023-12-04T21:43:39;23.70;;;20.00;;
12222;SDS011;6174;49.058;8.524;2023-12-04T21:46:05;19.00;;;17.03;;
12222;SDS011;6174;49.058;8.524;2023-12-04T21:48:32;18.43;;;16.50;;
12222;SDS011;6174;49.058;8.524;2023-12-04T21:51:01;16.87;;;15.13;;